Seatonville, Illinois
Current Conditions -  °F | °C
As of 4:35 PM on Friday 28 Nov 2014 (Local Time) from KVYS Reporting Station
Clear Clear  
Wind Chill: 29°   Ceiling: Unl
Heat Index: 35°   Visibility: 7mi
Dew Point: 31°   Wind: 8mph
Humidity: 85%   Direction: 170°S
Pressure: 29.97"   Gusts: NA
Location:  41.36°N, 89.28°W
Report Text: KVYS 282235Z AUTO 17007KT 7SM CLR 02/00 A2997 RMK AO2 T00171005
Loading
Personal Weather Stations






























Interactive Weather Map New forecast layout! Learn more

10-Day Weather Forecast

Advertisements
Track Severe Weather on mobile